sensor_id;sensor_type;location;lat;lon;timestamp;P1;durP1;ratioP1;P2;durP2;ratioP2
21038;SDS011;10678;51.002;4.786;2023-05-29T00:01:18;14.63;;;5.80;;
21038;SDS011;10678;51.002;4.786;2023-05-29T00:03:46;11.85;;;5.25;;
21038;SDS011;10678;51.002;4.786;2023-05-29T00:06:12;9.40;;;5.50;;
21038;SDS011;10678;51.002;4.786;2023-05-29T00:08:38;14.18;;;5.72;;
21038;SDS011;10678;51.002;4.786;2023-05-29T00:11:04;16.33;;;6.22;;
21038;SDS011;10678;51.002;4.786;2023-05-29T00:13:30;13.32;;;5.70;;
21038;SDS011;10678;51.002;4.786;2023-05-29T00:15:55;19.13;;;5.90;;
21038;SDS011;10678;51.002;4.786;2023-05-29T00:18:21;13.38;;;5.68;;
21038;SDS011;10678;51.002;4.786;2023-05-29T00:20:47;17.10;;;5.95;;
21038;SDS011;10678;51.002;4.786;2023-05-29T00:23:13;12.77;;;5.88;;
21038;SDS011;10678;51.002;4.786;2023-05-29T00:25:38;12.80;;;5.47;;
21038;SDS011;10678;51.002;4.786;2023-05-29T00:28:07;13.23;;;5.95;;
21038;SDS011;10678;51.002;4.786;2023-05-29T00:30:33;9.63;;;5.20;;
21038;SDS011;10678;51.002;4.786;2023-05-29T00:32:59;13.40;;;5.85;;
21038;SDS011;10678;51.002;4.786;2023-05-29T00:35:25;14.93;;;6.20;;
21038;SDS011;10678;51.002;4.786;2023-05-29T00:37:50;15.73;;;5.28;;
21038;SDS011;10678;51.002;4.786;2023-05-29T00:40:16;17.33;;;6.20;;
21038;SDS011;10678;51.002;4.786;2023-05-29T00:42:42;13.70;;;6.07;;
21038;SDS011;10678;51.002;4.786;2023-05-29T00:45:07;13.00;;;5.95;;
21038;SDS011;10678;51.002;4.786;2023-05-29T00:47:33;12.90;;;6.15;;
21038;SDS011;10678;51.002;4.786;2023-05-29T00:49:59;15.77;;;6.07;;
21038;SDS011;10678;51.002;4.786;2023-05-29T00:52:26;16.25;;;6.28;;
21038;SDS011;10678;51.002;4.786;2023-05-29T00:54:52;13.85;;;6.22;;
21038;SDS011;10678;51.002;4.786;2023-05-29T00:57:19;21.77;;;6.55;;
21038;SDS011;10678;51.002;4.786;2023-05-29T00:59:45;21.30;;;6.07;;
21038;SDS011;10678;51.002;4.786;2023-05-29T01:02:12;17.17;;;6.28;;
21038;SDS011;10678;51.002;4.786;2023-05-29T01:04:39;12.27;;;7.00;;
21038;SDS011;10678;51.002;4.786;2023-05-29T01:07:04;15.93;;;6.30;;
21038;SDS011;10678;51.002;4.786;2023-05-29T01:09:32;13.55;;;6.57;;
21038;SDS011;10678;51.002;4.786;2023-05-29T01:25:45;11.20;;;6.30;;
21038;SDS011;10678;51.002;4.786;2023-05-29T01:28:19;16.80;;;6.38;;
21038;SDS011;10678;51.002;4.786;2023-05-29T01:30:46;13.55;;;5.85;;
21038;SDS011;10678;51.002;4.786;2023-05-29T01:33:14;15.13;;;6.30;;
21038;SDS011;10678;51.002;4.786;2023-05-29T01:35:40;13.43;;;6.20;;
21038;SDS011;10678;51.002;4.786;2023-05-29T01:38:06;16.98;;;6.90;;
21038;SDS011;10678;51.002;4.786;2023-05-29T01:40:31;14.85;;;6.00;;
21038;SDS011;10678;51.002;4.786;2023-05-29T01:42:57;17.10;;;6.78;;
21038;SDS011;10678;51.002;4.786;2023-05-29T01:45:23;14.70;;;6.78;;
21038;SDS011;10678;51.002;4.786;2023-05-29T01:47:49;14.38;;;5.85;;
21038;SDS011;10678;51.002;4.786;2023-05-29T01:50:15;14.75;;;5.80;;
21038;SDS011;10678;51.002;4.786;2023-05-29T01:52:43;14.48;;;6.82;;
21038;SDS011;10678;51.002;4.786;2023-05-29T01:55:09;16.83;;;6.00;;
21038;SDS011;10678;51.002;4.786;2023-05-29T01:57:35;14.82;;;6.60;;
21038;SDS011;10678;51.002;4.786;2023-05-29T02:00:02;16.25;;;6.10;;
21038;SDS011;10678;51.002;4.786;2023-05-29T02:02:36;17.23;;;5.93;;
21038;SDS011;10678;51.002;4.786;2023-05-29T02:05:05;18.70;;;6.38;;
21038;SDS011;10678;51.002;4.786;2023-05-29T02:07:32;14.93;;;5.40;;
21038;SDS011;10678;51.002;4.786;2023-05-29T02:09:58;14.68;;;5.90;;
21038;SDS011;10678;51.002;4.786;2023-05-29T02:12:24;12.77;;;4.82;;
21038;SDS011;10678;51.002;4.786;2023-05-29T02:14:50;20.20;;;5.35;;
21038;SDS011;10678;51.002;4.786;2023-05-29T02:17:15;16.38;;;4.95;;
21038;SDS011;10678;51.002;4.786;2023-05-29T02:19:41;22.25;;;5.25;;
21038;SDS011;10678;51.002;4.786;2023-05-29T02:22:07;15.18;;;4.82;;
21038;SDS011;10678;51.002;4.786;2023-05-29T02:24:33;12.88;;;4.32;;
21038;SDS011;10678;51.002;4.786;2023-05-29T02:26:58;16.13;;;5.30;;
21038;SDS011;10678;51.002;4.786;2023-05-29T02:29:24;14.30;;;4.72;;
21038;SDS011;10678;51.002;4.786;2023-05-29T02:31:50;14.32;;;4.85;;
21038;SDS011;10678;51.002;4.786;2023-05-29T02:34:15;14.27;;;4.50;;
21038;SDS011;10678;51.002;4.786;2023-05-29T02:36:41;17.80;;;4.65;;
21038;SDS011;10678;51.002;4.786;2023-05-29T02:39:06;15.15;;;4.35;;
21038;SDS011;10678;51.002;4.786;2023-05-29T02:41:32;16.33;;;4.82;;
21038;SDS011;10678;51.002;4.786;2023-05-29T02:43:58;15.20;;;3.97;;
21038;SDS011;10678;51.002;4.786;2023-05-29T02:46:24;16.75;;;4.60;;
21038;SDS011;10678;51.002;4.786;2023-05-29T02:48:49;12.60;;;3.95;;
21038;SDS011;10678;51.002;4.786;2023-05-29T02:51:15;16.92;;;4.53;;
21038;SDS011;10678;51.002;4.786;2023-05-29T02:53:40;14.70;;;4.78;;
21038;SDS011;10678;51.002;4.786;2023-05-29T02:56:07;17.15;;;4.07;;
21038;SDS011;10678;51.002;4.786;2023-05-29T02:58:34;12.50;;;4.32;;
21038;SDS011;10678;51.002;4.786;2023-05-29T03:01:01;16.52;;;4.00;;
21038;SDS011;10678;51.002;4.786;2023-05-29T03:03:28;14.93;;;3.72;;
21038;SDS011;10678;51.002;4.786;2023-05-29T03:05:54;19.95;;;4.65;;
21038;SDS011;10678;51.002;4.786;2023-05-29T03:08:20;21.10;;;4.50;;
21038;SDS011;10678;51.002;4.786;2023-05-29T03:10:46;16.73;;;3.83;;
21038;SDS011;10678;51.002;4.786;2023-05-29T03:13:12;16.38;;;4.30;;
21038;SDS011;10678;51.002;4.786;2023-05-29T03:15:38;11.48;;;3.58;;
21038;SDS011;10678;51.002;4.786;2023-05-29T03:18:04;16.00;;;2.95;;
21038;SDS011;10678;51.002;4.786;2023-05-29T03:20:29;14.98;;;3.42;;
21038;SDS011;10678;51.002;4.786;2023-05-29T03:22:55;13.30;;;3.45;;
21038;SDS011;10678;51.002;4.786;2023-05-29T03:25:21;13.98;;;3.70;;
21038;SDS011;10678;51.002;4.786;2023-05-29T03:27:47;14.15;;;3.47;;
21038;SDS011;10678;51.002;4.786;2023-05-29T03:30:12;10.63;;;3.28;;
21038;SDS011;10678;51.002;4.786;2023-05-29T03:32:38;16.30;;;3.42;;
21038;SDS011;10678;51.002;4.786;2023-05-29T03:35:04;11.15;;;3.13;;
21038;SDS011;10678;51.002;4.786;2023-05-29T03:37:30;11.88;;;3.28;;
21038;SDS011;10678;51.002;4.786;2023-05-29T03:39:55;19.42;;;4.35;;
21038;SDS011;10678;51.002;4.786;2023-05-29T03:42:21;13.48;;;3.55;;
21038;SDS011;10678;51.002;4.786;2023-05-29T03:44:47;10.35;;;3.35;;
21038;SDS011;10678;51.002;4.786;2023-05-29T03:47:12;8.70;;;2.75;;
21038;SDS011;10678;51.002;4.786;2023-05-29T03:49:38;11.55;;;3.28;;
21038;SDS011;10678;51.002;4.786;2023-05-29T03:52:04;12.80;;;3.00;;
21038;SDS011;10678;51.002;4.786;2023-05-29T03:54:30;17.20;;;2.97;;
21038;SDS011;10678;51.002;4.786;2023-05-29T03:56:55;13.35;;;3.60;;
21038;SDS011;10678;51.002;4.786;2023-05-29T03:59:21;11.40;;;2.50;;
21038;SDS011;10678;51.002;4.786;2023-05-29T04:01:46;17.00;;;4.07;;
21038;SDS011;10678;51.002;4.786;2023-05-29T04:04:12;16.40;;;3.03;;
21038;SDS011;10678;51.002;4.786;2023-05-29T04:06:38;12.43;;;3.10;;
21038;SDS011;10678;51.002;4.786;2023-05-29T04:09:06;13.55;;;3.10;;
21038;SDS011;10678;51.002;4.786;2023-05-29T04:11:34;12.88;;;3.53;;
21038;SDS011;10678;51.002;4.786;2023-05-29T04:14:00;15.10;;;2.95;;
21038;SDS011;10678;51.002;4.786;2023-05-29T04:16:27;13.68;;;2.60;;
21038;SDS011;10678;51.002;4.786;2023-05-29T04:18:53;13.15;;;3.47;;
21038;SDS011;10678;51.002;4.786;2023-05-29T04:21:19;14.77;;;2.88;;
21038;SDS011;10678;51.002;4.786;2023-05-29T04:23:45;14.98;;;2.88;;
21038;SDS011;10678;51.002;4.786;2023-05-29T04:26:11;17.67;;;4.85;;
21038;SDS011;10678;51.002;4.786;2023-05-29T04:28:37;18.60;;;3.75;;
21038;SDS011;10678;51.002;4.786;2023-05-29T04:31:04;12.63;;;3.67;;
21038;SDS011;10678;51.002;4.786;2023-05-29T04:33:30;14.05;;;2.95;;
21038;SDS011;10678;51.002;4.786;2023-05-29T04:35:57;23.88;;;3.42;;
21038;SDS011;10678;51.002;4.786;2023-05-29T04:38:26;24.63;;;3.42;;
21038;SDS011;10678;51.002;4.786;2023-05-29T04:40:52;14.75;;;2.97;;
21038;SDS011;10678;51.002;4.786;2023-05-29T04:43:22;19.40;;;3.63;;
21038;SDS011;10678;51.002;4.786;2023-05-29T04:45:51;15.13;;;2.80;;
21038;SDS011;10678;51.002;4.786;2023-05-29T04:48:21;13.23;;;3.83;;
21038;SDS011;10678;51.002;4.786;2023-05-29T04:50:47;13.20;;;3.05;;
21038;SDS011;10678;51.002;4.786;2023-05-29T04:53:17;14.82;;;3.25;;
21038;SDS011;10678;51.002;4.786;2023-05-29T04:55:43;14.98;;;3.75;;
21038;SDS011;10678;51.002;4.786;2023-05-29T04:58:08;15.68;;;3.70;;
21038;SDS011;10678;51.002;4.786;2023-05-29T05:00:36;18.08;;;3.20;;
21038;SDS011;10678;51.002;4.786;2023-05-29T05:03:02;12.85;;;2.67;;
21038;SDS011;10678;51.002;4.786;2023-05-29T05:05:28;14.75;;;3.00;;
21038;SDS011;10678;51.002;4.786;2023-05-29T05:07:53;18.17;;;3.65;;
21038;SDS011;10678;51.002;4.786;2023-05-29T05:10:19;14.40;;;3.42;;
21038;SDS011;10678;51.002;4.786;2023-05-29T05:12:45;12.23;;;3.08;;
21038;SDS011;10678;51.002;4.786;2023-05-29T05:15:10;11.77;;;3.05;;
21038;SDS011;10678;51.002;4.786;2023-05-29T05:17:37;17.95;;;3.80;;
21038;SDS011;10678;51.002;4.786;2023-05-29T05:20:03;16.30;;;3.00;;
21038;SDS011;10678;51.002;4.786;2023-05-29T05:22:30;18.40;;;3.40;;
21038;SDS011;10678;51.002;4.786;2023-05-29T05:24:56;16.67;;;4.00;;
21038;SDS011;10678;51.002;4.786;2023-05-29T05:27:24;16.20;;;3.28;;
21038;SDS011;10678;51.002;4.786;2023-05-29T05:29:50;13.90;;;2.75;;
21038;SDS011;10678;51.002;4.786;2023-05-29T05:32:16;15.20;;;2.65;;
21038;SDS011;10678;51.002;4.786;2023-05-29T05:34:41;18.05;;;3.63;;
21038;SDS011;10678;51.002;4.786;2023-05-29T05:37:07;13.90;;;3.25;;
21038;SDS011;10678;51.002;4.786;2023-05-29T05:39:32;18.52;;;3.15;;
21038;SDS011;10678;51.002;4.786;2023-05-29T05:41:58;14.07;;;2.72;;
21038;SDS011;10678;51.002;4.786;2023-05-29T05:44:23;21.73;;;4.13;;
21038;SDS011;10678;51.002;4.786;2023-05-29T05:46:49;13.40;;;3.22;;
21038;SDS011;10678;51.002;4.786;2023-05-29T05:49:15;27.17;;;3.63;;
21038;SDS011;10678;51.002;4.786;2023-05-29T05:51:40;12.60;;;2.53;;
21038;SDS011;10678;51.002;4.786;2023-05-29T05:54:06;14.82;;;3.55;;
21038;SDS011;10678;51.002;4.786;2023-05-29T05:56:31;18.95;;;3.10;;
21038;SDS011;10678;51.002;4.786;2023-05-29T05:58:57;23.35;;;3.40;;
21038;SDS011;10678;51.002;4.786;2023-05-29T06:01:23;11.88;;;2.65;;
21038;SDS011;10678;51.002;4.786;2023-05-29T06:03:48;15.02;;;3.25;;
21038;SDS011;10678;51.002;4.786;2023-05-29T06:06:14;19.00;;;4.00;;
21038;SDS011;10678;51.002;4.786;2023-05-29T06:08:39;14.00;;;3.20;;
21038;SDS011;10678;51.002;4.786;2023-05-29T06:11:06;15.15;;;3.92;;
21038;SDS011;10678;51.002;4.786;2023-05-29T06:13:32;19.52;;;3.35;;
21038;SDS011;10678;51.002;4.786;2023-05-29T06:15:57;17.42;;;3.22;;
21038;SDS011;10678;51.002;4.786;2023-05-29T06:18:23;17.15;;;3.15;;
21038;SDS011;10678;51.002;4.786;2023-05-29T06:20:48;16.98;;;3.00;;
21038;SDS011;10678;51.002;4.786;2023-05-29T06:23:15;16.45;;;3.05;;
21038;SDS011;10678;51.002;4.786;2023-05-29T06:25:40;12.07;;;3.08;;
21038;SDS011;10678;51.002;4.786;2023-05-29T06:28:06;12.88;;;3.17;;
21038;SDS011;10678;51.002;4.786;2023-05-29T06:30:32;13.65;;;3.22;;
21038;SDS011;10678;51.002;4.786;2023-05-29T06:32:58;18.90;;;3.20;;
21038;SDS011;10678;51.002;4.786;2023-05-29T06:35:24;14.25;;;2.60;;
21038;SDS011;10678;51.002;4.786;2023-05-29T06:37:49;16.67;;;3.30;;
21038;SDS011;10678;51.002;4.786;2023-05-29T06:40:15;19.88;;;3.97;;
21038;SDS011;10678;51.002;4.786;2023-05-29T06:42:41;22.33;;;3.95;;
21038;SDS011;10678;51.002;4.786;2023-05-29T06:45:10;10.93;;;2.92;;
21038;SDS011;10678;51.002;4.786;2023-05-29T06:47:38;15.93;;;2.72;;
21038;SDS011;10678;51.002;4.786;2023-05-29T06:50:04;14.35;;;3.10;;
21038;SDS011;10678;51.002;4.786;2023-05-29T06:52:31;10.07;;;2.13;;
21038;SDS011;10678;51.002;4.786;2023-05-29T06:54:56;12.45;;;2.17;;
21038;SDS011;10678;51.002;4.786;2023-05-29T06:57:22;13.05;;;2.80;;
21038;SDS011;10678;51.002;4.786;2023-05-29T06:59:47;13.30;;;3.40;;
21038;SDS011;10678;51.002;4.786;2023-05-29T07:02:13;11.48;;;2.60;;
21038;SDS011;10678;51.002;4.786;2023-05-29T07:04:39;14.93;;;3.42;;
21038;SDS011;10678;51.002;4.786;2023-05-29T07:07:04;14.30;;;2.83;;
21038;SDS011;10678;51.002;4.786;2023-05-29T07:09:30;13.27;;;3.35;;
21038;SDS011;10678;51.002;4.786;2023-05-29T07:11:55;9.73;;;2.60;;
21038;SDS011;10678;51.002;4.786;2023-05-29T07:14:21;11.38;;;2.55;;
21038;SDS011;10678;51.002;4.786;2023-05-29T07:16:47;12.82;;;2.33;;
21038;SDS011;10678;51.002;4.786;2023-05-29T07:19:12;13.55;;;3.00;;
21038;SDS011;10678;51.002;4.786;2023-05-29T07:21:39;10.93;;;2.85;;
21038;SDS011;10678;51.002;4.786;2023-05-29T07:24:04;13.20;;;2.95;;
21038;SDS011;10678;51.002;4.786;2023-05-29T07:26:30;10.63;;;2.90;;
21038;SDS011;10678;51.002;4.786;2023-05-29T07:28:57;16.48;;;3.65;;
21038;SDS011;10678;51.002;4.786;2023-05-29T07:31:23;15.40;;;3.22;;
21038;SDS011;10678;51.002;4.786;2023-05-29T07:33:48;11.60;;;3.15;;
21038;SDS011;10678;51.002;4.786;2023-05-29T07:36:17;15.18;;;3.47;;
21038;SDS011;10678;51.002;4.786;2023-05-29T07:38:43;11.10;;;2.88;;
21038;SDS011;10678;51.002;4.786;2023-05-29T07:41:09;9.32;;;2.65;;
21038;SDS011;10678;51.002;4.786;2023-05-29T07:43:34;13.05;;;3.08;;
21038;SDS011;10678;51.002;4.786;2023-05-29T07:46:00;14.93;;;3.42;;
21038;SDS011;10678;51.002;4.786;2023-05-29T07:48:26;12.63;;;2.58;;
21038;SDS011;10678;51.002;4.786;2023-05-29T07:50:53;15.77;;;3.13;;
21038;SDS011;10678;51.002;4.786;2023-05-29T07:53:18;8.23;;;2.28;;
21038;SDS011;10678;51.002;4.786;2023-05-29T07:55:44;11.18;;;2.50;;
21038;SDS011;10678;51.002;4.786;2023-05-29T07:58:10;13.48;;;2.63;;
21038;SDS011;10678;51.002;4.786;2023-05-29T08:00:36;16.50;;;3.42;;
21038;SDS011;10678;51.002;4.786;2023-05-29T08:03:03;17.00;;;3.70;;
21038;SDS011;10678;51.002;4.786;2023-05-29T08:05:29;15.57;;;2.90;;
21038;SDS011;10678;51.002;4.786;2023-05-29T08:07:56;11.40;;;2.88;;
21038;SDS011;10678;51.002;4.786;2023-05-29T08:10:23;14.82;;;3.33;;
21038;SDS011;10678;51.002;4.786;2023-05-29T08:12:49;11.25;;;2.72;;
21038;SDS011;10678;51.002;4.786;2023-05-29T08:15:15;12.27;;;3.00;;
21038;SDS011;10678;51.002;4.786;2023-05-29T08:17:42;12.13;;;2.90;;
21038;SDS011;10678;51.002;4.786;2023-05-29T08:20:08;13.13;;;3.20;;
21038;SDS011;10678;51.002;4.786;2023-05-29T08:22:35;11.85;;;2.92;;
21038;SDS011;10678;51.002;4.786;2023-05-29T08:25:00;13.93;;;3.58;;
21038;SDS011;10678;51.002;4.786;2023-05-29T08:27:26;14.52;;;2.78;;
21038;SDS011;10678;51.002;4.786;2023-05-29T08:29:52;16.30;;;3.42;;
21038;SDS011;10678;51.002;4.786;2023-05-29T08:32:19;16.35;;;3.53;;
21038;SDS011;10678;51.002;4.786;2023-05-29T08:34:45;14.98;;;3.63;;
21038;SDS011;10678;51.002;4.786;2023-05-29T08:37:11;11.52;;;3.00;;
21038;SDS011;10678;51.002;4.786;2023-05-29T08:39:38;14.82;;;3.30;;
21038;SDS011;10678;51.002;4.786;2023-05-29T08:42:07;14.60;;;3.08;;
21038;SDS011;10678;51.002;4.786;2023-05-29T08:44:39;16.38;;;2.67;;
21038;SDS011;10678;51.002;4.786;2023-05-29T08:47:05;13.13;;;2.60;;
21038;SDS011;10678;51.002;4.786;2023-05-29T08:49:42;15.75;;;3.17;;
21038;SDS011;10678;51.002;4.786;2023-05-29T08:52:16;11.63;;;3.08;;
21038;SDS011;10678;51.002;4.786;2023-05-29T08:54:44;24.52;;;4.50;;
21038;SDS011;10678;51.002;4.786;2023-05-29T08:57:10;12.07;;;3.25;;
21038;SDS011;10678;51.002;4.786;2023-05-29T08:59:37;11.10;;;3.00;;
21038;SDS011;10678;51.002;4.786;2023-05-29T09:02:06;14.98;;;3.03;;
21038;SDS011;10678;51.002;4.786;2023-05-29T09:04:32;16.90;;;3.60;;
21038;SDS011;10678;51.002;4.786;2023-05-29T09:06:59;17.30;;;3.03;;
21038;SDS011;10678;51.002;4.786;2023-05-29T09:09:28;11.23;;;2.83;;
21038;SDS011;10678;51.002;4.786;2023-05-29T09:11:56;15.30;;;3.10;;
21038;SDS011;10678;51.002;4.786;2023-05-29T09:14:39;14.70;;;2.85;;
21038;SDS011;10678;51.002;4.786;2023-05-29T09:17:07;15.57;;;3.40;;
21038;SDS011;10678;51.002;4.786;2023-05-29T09:19:35;12.50;;;3.35;;
21038;SDS011;10678;51.002;4.786;2023-05-29T09:22:05;12.90;;;3.50;;
21038;SDS011;10678;51.002;4.786;2023-05-29T09:24:33;12.05;;;3.03;;
21038;SDS011;10678;51.002;4.786;2023-05-29T09:27:01;14.98;;;3.40;;
21038;SDS011;10678;51.002;4.786;2023-05-29T09:29:32;12.18;;;3.45;;
21038;SDS011;10678;51.002;4.786;2023-05-29T09:31:58;12.50;;;3.17;;
21038;SDS011;10678;51.002;4.786;2023-05-29T09:34:25;13.43;;;3.10;;
21038;SDS011;10678;51.002;4.786;2023-05-29T09:37:00;11.02;;;2.90;;
21038;SDS011;10678;51.002;4.786;2023-05-29T09:39:33;15.73;;;3.50;;
21038;SDS011;10678;51.002;4.786;2023-05-29T09:41:59;20.58;;;3.88;;
21038;SDS011;10678;51.002;4.786;2023-05-29T09:44:26;33.17;;;4.50;;
21038;SDS011;10678;51.002;4.786;2023-05-29T09:46:57;71.03;;;6.95;;
21038;SDS011;10678;51.002;4.786;2023-05-29T09:49:24;71.80;;;5.38;;
21038;SDS011;10678;51.002;4.786;2023-05-29T09:51:53;34.42;;;3.35;;
21038;SDS011;10678;51.002;4.786;2023-05-29T09:54:19;14.27;;;2.97;;
21038;SDS011;10678;51.002;4.786;2023-05-29T09:56:45;16.38;;;3.95;;
21038;SDS011;10678;51.002;4.786;2023-05-29T09:59:12;13.40;;;2.95;;
21038;SDS011;10678;51.002;4.786;2023-05-29T10:01:41;11.05;;;3.03;;
21038;SDS011;10678;51.002;4.786;2023-05-29T10:04:07;12.57;;;2.83;;
21038;SDS011;10678;51.002;4.786;2023-05-29T10:06:35;13.75;;;2.72;;
21038;SDS011;10678;51.002;4.786;2023-05-29T10:09:03;13.70;;;3.33;;
21038;SDS011;10678;51.002;4.786;2023-05-29T10:11:33;12.70;;;2.97;;
21038;SDS011;10678;51.002;4.786;2023-05-29T10:14:00;14.02;;;2.72;;
21038;SDS011;10678;51.002;4.786;2023-05-29T10:16:27;10.48;;;2.45;;
21038;SDS011;10678;51.002;4.786;2023-05-29T10:18:55;11.55;;;2.72;;
21038;SDS011;10678;51.002;4.786;2023-05-29T10:21:22;12.00;;;2.50;;
21038;SDS011;10678;51.002;4.786;2023-05-29T10:23:51;12.23;;;2.83;;
21038;SDS011;10678;51.002;4.786;2023-05-29T10:26:24;10.73;;;2.53;;
21038;SDS011;10678;51.002;4.786;2023-05-29T10:34:45;11.90;;;2.67;;
21038;SDS011;10678;51.002;4.786;2023-05-29T10:37:57;8.95;;;2.28;;
21038;SDS011;10678;51.002;4.786;2023-05-29T10:40:25;12.35;;;2.38;;
21038;SDS011;10678;51.002;4.786;2023-05-29T10:42:52;12.63;;;2.53;;
21038;SDS011;10678;51.002;4.786;2023-05-29T10:47:55;11.73;;;2.60;;
21038;SDS011;10678;51.002;4.786;2023-05-29T10:50:36;9.98;;;2.33;;
21038;SDS011;10678;51.002;4.786;2023-05-29T10:53:06;13.25;;;2.67;;
21038;SDS011;10678;51.002;4.786;2023-05-29T10:55:35;13.02;;;2.72;;
21038;SDS011;10678;51.002;4.786;2023-05-29T10:58:04;8.48;;;2.08;;
21038;SDS011;10678;51.002;4.786;2023-05-29T11:00:33;13.95;;;2.75;;
21038;SDS011;10678;51.002;4.786;2023-05-29T11:03:06;13.75;;;2.80;;
21038;SDS011;10678;51.002;4.786;2023-05-29T11:05:33;12.88;;;2.45;;
21038;SDS011;10678;51.002;4.786;2023-05-29T11:07:59;11.93;;;2.80;;
21038;SDS011;10678;51.002;4.786;2023-05-29T11:13:51;12.45;;;2.50;;
21038;SDS011;10678;51.002;4.786;2023-05-29T11:19:09;17.85;;;2.72;;
21038;SDS011;10678;51.002;4.786;2023-05-29T11:24:23;9.52;;;2.38;;
21038;SDS011;10678;51.002;4.786;2023-05-29T11:26:51;11.10;;;2.17;;
21038;SDS011;10678;51.002;4.786;2023-05-29T11:29:21;12.30;;;2.53;;
21038;SDS011;10678;51.002;4.786;2023-05-29T11:31:48;9.70;;;2.83;;
21038;SDS011;10678;51.002;4.786;2023-05-29T11:34:21;11.15;;;2.80;;
21038;SDS011;10678;51.002;4.786;2023-05-29T11:36:48;10.50;;;2.90;;
21038;SDS011;10678;51.002;4.786;2023-05-29T11:39:16;11.02;;;3.03;;
21038;SDS011;10678;51.002;4.786;2023-05-29T11:41:41;12.38;;;2.92;;
21038;SDS011;10678;51.002;4.786;2023-05-29T11:44:07;11.30;;;2.58;;
21038;SDS011;10678;51.002;4.786;2023-05-29T11:46:33;11.00;;;2.38;;
21038;SDS011;10678;51.002;4.786;2023-05-29T11:48:59;11.13;;;2.67;;
21038;SDS011;10678;51.002;4.786;2023-05-29T11:51:26;10.40;;;2.70;;
21038;SDS011;10678;51.002;4.786;2023-05-29T11:53:52;10.43;;;2.70;;
21038;SDS011;10678;51.002;4.786;2023-05-29T11:56:27;9.88;;;2.28;;
21038;SDS011;10678;51.002;4.786;2023-05-29T11:58:54;12.48;;;2.35;;
21038;SDS011;10678;51.002;4.786;2023-05-29T12:01:23;9.23;;;2.22;;
21038;SDS011;10678;51.002;4.786;2023-05-29T12:03:50;10.30;;;2.45;;
21038;SDS011;10678;51.002;4.786;2023-05-29T12:06:16;10.70;;;2.35;;
21038;SDS011;10678;51.002;4.786;2023-05-29T12:08:55;11.40;;;2.58;;
21038;SDS011;10678;51.002;4.786;2023-05-29T12:11:24;10.27;;;3.00;;
21038;SDS011;10678;51.002;4.786;2023-05-29T12:13:59;10.80;;;2.72;;
21038;SDS011;10678;51.002;4.786;2023-05-29T12:16:26;10.65;;;2.97;;
21038;SDS011;10678;51.002;4.786;2023-05-29T12:18:56;13.30;;;2.70;;
21038;SDS011;10678;51.002;4.786;2023-05-29T12:21:22;8.35;;;2.28;;
21038;SDS011;10678;51.002;4.786;2023-05-29T12:23:51;10.45;;;2.03;;
21038;SDS011;10678;51.002;4.786;2023-05-29T12:26:17;8.23;;;2.50;;
21038;SDS011;10678;51.002;4.786;2023-05-29T12:28:45;11.68;;;2.50;;
21038;SDS011;10678;51.002;4.786;2023-05-29T12:31:11;7.65;;;2.38;;
21038;SDS011;10678;51.002;4.786;2023-05-29T12:33:40;9.60;;;2.97;;
21038;SDS011;10678;51.002;4.786;2023-05-29T12:36:08;9.05;;;2.45;;
21038;SDS011;10678;51.002;4.786;2023-05-29T12:38:45;9.40;;;2.40;;
21038;SDS011;10678;51.002;4.786;2023-05-29T12:41:28;9.65;;;2.47;;
21038;SDS011;10678;51.002;4.786;2023-05-29T12:43:58;7.82;;;2.60;;
21038;SDS011;10678;51.002;4.786;2023-05-29T12:46:26;12.02;;;2.47;;
21038;SDS011;10678;51.002;4.786;2023-05-29T12:48:56;10.38;;;2.65;;
21038;SDS011;10678;51.002;4.786;2023-05-29T12:51:22;13.48;;;2.60;;
21038;SDS011;10678;51.002;4.786;2023-05-29T12:53:48;10.00;;;2.78;;
21038;SDS011;10678;51.002;4.786;2023-05-29T12:56:15;9.82;;;2.65;;
21038;SDS011;10678;51.002;4.786;2023-05-29T12:58:40;13.73;;;2.58;;
21038;SDS011;10678;51.002;4.786;2023-05-29T13:01:11;14.68;;;3.40;;
21038;SDS011;10678;51.002;4.786;2023-05-29T13:03:38;9.00;;;2.50;;
21038;SDS011;10678;51.002;4.786;2023-05-29T13:06:04;9.80;;;2.72;;
21038;SDS011;10678;51.002;4.786;2023-05-29T13:08:30;11.63;;;2.80;;
21038;SDS011;10678;51.002;4.786;2023-05-29T13:10:56;10.10;;;2.83;;
21038;SDS011;10678;51.002;4.786;2023-05-29T13:13:22;8.77;;;2.40;;
21038;SDS011;10678;51.002;4.786;2023-05-29T13:15:47;12.05;;;2.63;;
21038;SDS011;10678;51.002;4.786;2023-05-29T13:18:13;9.68;;;2.65;;
21038;SDS011;10678;51.002;4.786;2023-05-29T13:20:38;11.10;;;2.88;;
21038;SDS011;10678;51.002;4.786;2023-05-29T13:23:04;9.32;;;2.67;;
21038;SDS011;10678;51.002;4.786;2023-05-29T13:25:30;8.43;;;2.30;;
21038;SDS011;10678;51.002;4.786;2023-05-29T13:27:55;9.27;;;2.70;;
21038;SDS011;10678;51.002;4.786;2023-05-29T13:30:21;10.88;;;2.72;;
21038;SDS011;10678;51.002;4.786;2023-05-29T13:32:47;8.68;;;2.67;;
21038;SDS011;10678;51.002;4.786;2023-05-29T13:35:13;11.68;;;3.13;;
21038;SDS011;10678;51.002;4.786;2023-05-29T13:37:39;9.50;;;2.80;;
21038;SDS011;10678;51.002;4.786;2023-05-29T13:40:05;14.20;;;3.10;;
21038;SDS011;10678;51.002;4.786;2023-05-29T13:42:36;10.38;;;2.40;;
21038;SDS011;10678;51.002;4.786;2023-05-29T13:45:03;16.52;;;2.72;;
21038;SDS011;10678;51.002;4.786;2023-05-29T13:47:31;9.90;;;2.97;;
21038;SDS011;10678;51.002;4.786;2023-05-29T13:49:57;13.77;;;2.67;;
21038;SDS011;10678;51.002;4.786;2023-05-29T13:52:23;9.85;;;2.40;;
21038;SDS011;10678;51.002;4.786;2023-05-29T13:54:50;12.52;;;2.80;;
21038;SDS011;10678;51.002;4.786;2023-05-29T13:57:16;10.88;;;2.60;;
21038;SDS011;10678;51.002;4.786;2023-05-29T13:59:41;13.18;;;3.30;;
21038;SDS011;10678;51.002;4.786;2023-05-29T14:02:07;11.88;;;2.60;;
21038;SDS011;10678;51.002;4.786;2023-05-29T14:04:33;10.52;;;2.72;;
21038;SDS011;10678;51.002;4.786;2023-05-29T14:06:59;12.02;;;2.65;;
21038;SDS011;10678;51.002;4.786;2023-05-29T14:09:25;11.68;;;2.95;;
21038;SDS011;10678;51.002;4.786;2023-05-29T14:12:02;24.40;;;3.03;;
21038;SDS011;10678;51.002;4.786;2023-05-29T14:14:28;10.70;;;2.80;;
21038;SDS011;10678;51.002;4.786;2023-05-29T14:16:54;9.27;;;2.47;;
21038;SDS011;10678;51.002;4.786;2023-05-29T14:19:20;24.75;;;3.20;;
21038;SDS011;10678;51.002;4.786;2023-05-29T14:21:47;17.65;;;3.08;;
21038;SDS011;10678;51.002;4.786;2023-05-29T14:24:12;27.75;;;3.17;;
21038;SDS011;10678;51.002;4.786;2023-05-29T14:26:38;20.08;;;2.92;;
21038;SDS011;10678;51.002;4.786;2023-05-29T14:29:04;12.93;;;2.15;;
21038;SDS011;10678;51.002;4.786;2023-05-29T14:31:31;11.43;;;2.90;;
21038;SDS011;10678;51.002;4.786;2023-05-29T14:33:56;85.07;;;8.43;;
21038;SDS011;10678;51.002;4.786;2023-05-29T14:36:22;12.95;;;3.08;;
21038;SDS011;10678;51.002;4.786;2023-05-29T14:38:48;30.13;;;3.15;;
21038;SDS011;10678;51.002;4.786;2023-05-29T14:41:14;9.57;;;2.78;;
21038;SDS011;10678;51.002;4.786;2023-05-29T14:43:41;10.40;;;2.45;;
21038;SDS011;10678;51.002;4.786;2023-05-29T14:46:07;12.55;;;2.58;;
21038;SDS011;10678;51.002;4.786;2023-05-29T14:48:34;10.00;;;2.72;;
21038;SDS011;10678;51.002;4.786;2023-05-29T14:50:59;10.25;;;2.25;;
21038;SDS011;10678;51.002;4.786;2023-05-29T14:53:25;11.75;;;2.67;;
21038;SDS011;10678;51.002;4.786;2023-05-29T14:55:52;8.25;;;2.40;;
21038;SDS011;10678;51.002;4.786;2023-05-29T14:58:18;9.07;;;2.42;;
21038;SDS011;10678;51.002;4.786;2023-05-29T15:00:44;15.55;;;2.63;;
21038;SDS011;10678;51.002;4.786;2023-05-29T15:03:10;10.18;;;2.35;;
21038;SDS011;10678;51.002;4.786;2023-05-29T15:05:36;11.63;;;2.55;;